Time;durP1;ratioP1;P1;durP2;ratioP2;P2;SDS_P1;SDS_P2;PMS_P1;PMS_P2;Temp;Humidity;BMP_temperature;BMP_pressure;BME280_temperature;BME280_humidity;BME280_pressure;Samples;Min_cycle;Max_cycle;Signal;HPM_P1;HPM_P2
2023/01/19 00:01:54;;;;;;;24.77;13.55;;;;;;;;;;5100131;28;20453;-79
2023/01/19 00:04:20;;;;;;;24.50;13.20;;;;;;;;;;5091374;28;20067;-79
2023/01/19 00:06:46;;;;;;;23.10;13.00;;;;;;;;;;5111519;28;20061;-79
2023/01/19 00:09:12;;;;;;;22.52;14.85;;;;;;;;;;5104929;28;20071;-80
2023/01/19 00:11:38;;;;;;;26.88;14.38;;;;;;;;;;5095388;28;20386;-79
2023/01/19 00:14:04;;;;;;;24.75;15.82;;;;;;;;;;5107301;28;20034;-80
2023/01/19 00:16:30;;;;;;;22.30;12.05;;;;;;;;;;5102340;28;20437;-80
2023/01/19 00:18:56;;;;;;;24.98;14.00;;;;;;;;;;5102534;28;20059;-80
2023/01/19 00:21:23;;;;;;;22.48;12.57;;;;;;;;;;5111503;28;20077;-80
2023/01/19 00:23:51;;;;;;;29.27;16.80;;;;;;;;;;5108724;28;20072;-79
2023/01/19 00:26:17;;;;;;;31.45;14.85;;;;;;;;;;5111118;28;20389;-80
2023/01/19 00:28:44;;;;;;;26.05;14.30;;;;;;;;;;5091107;28;20038;-80
2023/01/19 00:31:10;;;;;;;25.27;14.35;;;;;;;;;;5110923;28;20038;-80
2023/01/19 00:33:36;;;;;;;28.80;16.50;;;;;;;;;;5090445;28;20039;-79
2023/01/19 00:36:02;;;;;;;22.63;12.60;;;;;;;;;;5086446;28;20039;-80
2023/01/19 00:38:28;;;;;;;21.98;12.68;;;;;;;;;;5108927;28;20040;-79
2023/01/19 00:40:54;;;;;;;24.33;14.57;;;;;;;;;;5103562;28;20107;-80
2023/01/19 00:43:20;;;;;;;24.60;13.93;;;;;;;;;;5109475;28;20043;-79
2023/01/19 00:45:46;;;;;;;23.80;14.63;;;;;;;;;;5088059;28;20028;-80
2023/01/19 00:48:12;;;;;;;28.50;14.63;;;;;;;;;;5110304;28;20034;-80
2023/01/19 00:50:38;;;;;;;30.40;17.73;;;;;;;;;;5107952;28;20051;-79
2023/01/19 00:53:04;;;;;;;28.05;15.82;;;;;;;;;;5104131;28;20367;-79
2023/01/19 00:55:32;;;;;;;32.00;17.80;;;;;;;;;;5085699;28;20028;-80
2023/01/19 00:57:58;;;;;;;29.33;16.60;;;;;;;;;;5109947;28;20030;-79
2023/01/19 01:00:25;;;;;;;25.80;15.05;;;;;;;;;;5107936;28;20077;-80
2023/01/19 01:02:51;;;;;;;30.35;17.52;;;;;;;;;;5105828;28;20368;-80
2023/01/19 01:05:18;;;;;;;23.90;14.98;;;;;;;;;;5100571;28;20143;-80
2023/01/19 01:07:44;;;;;;;23.17;14.52;;;;;;;;;;5102656;28;20038;-80
2023/01/19 01:10:11;;;;;;;20.65;12.70;;;;;;;;;;5095988;28;20145;-79
2023/01/19 01:12:37;;;;;;;27.88;14.55;;;;;;;;;;5110480;28;20023;-79
2023/01/19 01:15:04;;;;;;;30.25;16.85;;;;;;;;;;5094820;28;20032;-80
2023/01/19 01:17:30;;;;;;;29.67;14.38;;;;;;;;;;5108276;28;20046;-80
2023/01/19 01:19:56;;;;;;;55.38;32.78;;;;;;;;;;5107859;28;20032;-79
2023/01/19 01:22:22;;;;;;;45.55;24.58;;;;;;;;;;5097781;28;20781;-80
2023/01/19 01:24:48;;;;;;;36.50;20.17;;;;;;;;;;5108866;28;20042;-80
2023/01/19 01:27:14;;;;;;;38.92;22.33;;;;;;;;;;5109596;28;20125;-80
2023/01/19 01:29:45;;;;;;;38.92;23.48;;;;;;;;;;5109110;28;20039;-80
2023/01/19 01:32:11;;;;;;;39.65;23.02;;;;;;;;;;5108254;28;20023;-80
2023/01/19 01:34:37;;;;;;;43.78;25.13;;;;;;;;;;5108998;28;20043;-80
2023/01/19 01:37:03;;;;;;;44.25;26.15;;;;;;;;;;5104763;28;20028;-80
2023/01/19 01:39:29;;;;;;;50.90;28.45;;;;;;;;;;5097620;28;20032;-80
2023/01/19 01:41:55;;;;;;;47.63;28.52;;;;;;;;;;5107484;28;20031;-80
2023/01/19 01:44:48;;;;;;;56.40;35.83;;;;;;;;;;5109657;28;20040;-80
2023/01/19 01:47:14;;;;;;;44.20;23.98;;;;;;;;;;5091069;28;20031;-80
2023/01/19 01:49:40;;;;;;;36.53;21.73;;;;;;;;;;5100826;28;20640;-80
2023/01/19 01:52:06;;;;;;;30.95;19.52;;;;;;;;;;5100254;28;20035;-80
2023/01/19 01:54:33;;;;;;;27.45;17.15;;;;;;;;;;5070923;28;20123;-79
2023/01/19 01:57:02;;;;;;;27.85;13.35;;;;;;;;;;5101272;28;20062;-80
2023/01/19 01:59:37;;;;;;;25.27;12.00;;;;;;;;;;5089093;28;22305;-80
2023/01/19 02:05:15;;;;;;;23.27;11.77;;;;;;;;;;5109572;28;20760;-80
2023/01/19 02:13:33;;;;;;;19.80;10.57;;;;;;;;;;5107284;28;20047;-80
2023/01/19 02:16:02;;;;;;;17.48;10.52;;;;;;;;;;5108857;28;20066;-79
2023/01/19 02:18:29;;;;;;;18.10;10.77;;;;;;;;;;5096822;28;20149;-80
2023/01/19 02:21:13;;;;;;;13.18;7.47;;;;;;;;;;5094366;28;20803;-80
2023/01/19 02:23:46;;;;;;;17.55;9.77;;;;;;;;;;5109383;28;20372;-80
2023/01/19 02:26:15;;;;;;;22.80;12.50;;;;;;;;;;5110447;28;20032;-80
2023/01/19 02:28:42;;;;;;;17.35;10.60;;;;;;;;;;5101690;28;20069;-80
2023/01/19 02:31:09;;;;;;;18.75;10.73;;;;;;;;;;5104024;28;20043;-79
2023/01/19 02:33:36;;;;;;;20.35;10.68;;;;;;;;;;5107171;28;20028;-80
2023/01/19 02:36:02;;;;;;;18.42;10.32;;;;;;;;;;5071139;28;20483;-80
2023/01/19 02:38:30;;;;;;;19.15;9.95;;;;;;;;;;5101057;28;20066;-80
2023/01/19 02:40:57;;;;;;;17.05;9.52;;;;;;;;;;5106227;28;20046;-79
2023/01/19 02:43:23;;;;;;;20.17;9.77;;;;;;;;;;5106632;28;20110;-80
2023/01/19 02:45:49;;;;;;;17.30;9.73;;;;;;;;;;5075828;28;20035;-80
2023/01/19 02:48:16;;;;;;;15.50;10.00;;;;;;;;;;5085848;28;20686;-81
2023/01/19 02:50:46;;;;;;;16.83;9.65;;;;;;;;;;5088909;28;20056;-81
2023/01/19 02:53:21;;;;;;;16.75;10.75;;;;;;;;;;5086997;28;20057;-80
2023/01/19 02:55:51;;;;;;;19.50;11.15;;;;;;;;;;5091540;28;20676;-80
2023/01/19 02:58:30;;;;;;;20.83;11.23;;;;;;;;;;5108128;28;20028;-81
2023/01/19 03:01:07;;;;;;;18.90;11.13;;;;;;;;;;5089294;28;20080;-80
2023/01/19 03:03:48;;;;;;;21.20;11.75;;;;;;;;;;5097241;28;20066;-80
2023/01/19 03:06:33;;;;;;;25.20;13.07;;;;;;;;;;5094047;28;20036;-81
2023/01/19 03:09:04;;;;;;;21.30;13.20;;;;;;;;;;5084338;28;20565;-81
2023/01/19 03:11:33;;;;;;;20.30;11.85;;;;;;;;;;5097703;28;20031;-81
2023/01/19 03:14:11;;;;;;;23.75;12.43;;;;;;;;;;5103963;28;20031;-81
2023/01/19 03:16:37;;;;;;;24.67;12.77;;;;;;;;;;5112632;28;20040;-81
2023/01/19 03:19:06;;;;;;;19.60;11.82;;;;;;;;;;5089489;28;20028;-80
2023/01/19 03:21:33;;;;;;;19.65;10.80;;;;;;;;;;5084638;28;20665;-81
2023/01/19 03:24:02;;;;;;;17.92;9.35;;;;;;;;;;5083806;28;20576;-81
2023/01/19 03:26:29;;;;;;;20.77;12.75;;;;;;;;;;5078826;28;20070;-81
2023/01/19 03:28:56;;;;;;;29.23;11.98;;;;;;;;;;5110522;28;20024;-80
2023/01/19 03:31:23;;;;;;;22.90;12.38;;;;;;;;;;5100642;28;20066;-80
2023/01/19 03:33:52;;;;;;;27.23;14.05;;;;;;;;;;5110433;28;20072;-80
2023/01/19 03:36:26;;;;;;;21.02;11.93;;;;;;;;;;5105646;28;20032;-81
2023/01/19 03:38:53;;;;;;;23.30;11.52;;;;;;;;;;5095041;28;20028;-81
2023/01/19 03:41:21;;;;;;;23.75;12.55;;;;;;;;;;5110231;28;20036;-80
2023/01/19 03:43:49;;;;;;;23.13;11.88;;;;;;;;;;5088269;28;20032;-81
2023/01/19 03:46:17;;;;;;;19.98;11.35;;;;;;;;;;5091388;28;20428;-80
2023/01/19 03:48:44;;;;;;;18.27;9.50;;;;;;;;;;5110973;28;20480;-80
2023/01/19 03:51:10;;;;;;;17.17;9.27;;;;;;;;;;5109999;28;20533;-80
2023/01/19 03:53:36;;;;;;;19.83;9.98;;;;;;;;;;5110691;28;20031;-80
2023/01/19 03:56:02;;;;;;;13.98;7.50;;;;;;;;;;5109268;28;20036;-81
2023/01/19 03:58:28;;;;;;;12.57;7.70;;;;;;;;;;5102039;28;20038;-80
2023/01/19 04:00:54;;;;;;;20.27;9.98;;;;;;;;;;5110627;28;20035;-80
2023/01/19 04:03:20;;;;;;;12.48;7.45;;;;;;;;;;5110160;28;20038;-80
2023/01/19 04:05:46;;;;;;;16.70;9.50;;;;;;;;;;5105252;28;20445;-80
2023/01/19 04:08:12;;;;;;;17.55;9.60;;;;;;;;;;5078499;28;20030;-81
2023/01/19 04:10:38;;;;;;;20.05;8.90;;;;;;;;;;5102694;28;20027;-80
2023/01/19 04:13:05;;;;;;;20.20;9.55;;;;;;;;;;5098703;28;20023;-80
2023/01/19 04:15:31;;;;;;;19.45;10.05;;;;;;;;;;5100085;28;20119;-81
2023/01/19 04:17:58;;;;;;;16.48;8.07;;;;;;;;;;5102652;28;20035;-80
2023/01/19 04:20:25;;;;;;;15.93;9.15;;;;;;;;;;5097137;28;20035;-81
2023/01/19 04:22:51;;;;;;;19.83;10.77;;;;;;;;;;5087778;28;20020;-81
2023/01/19 04:25:17;;;;;;;18.17;9.45;;;;;;;;;;5084724;28;20046;-81
2023/01/19 04:27:43;;;;;;;16.10;10.10;;;;;;;;;;5089782;28;20020;-81
2023/01/19 04:30:10;;;;;;;20.42;9.75;;;;;;;;;;5079871;28;20073;-81
2023/01/19 04:32:36;;;;;;;21.13;9.80;;;;;;;;;;5096121;28;20028;-81
2023/01/19 04:35:02;;;;;;;22.85;11.52;;;;;;;;;;5088146;28;20466;-80
2023/01/19 04:37:28;;;;;;;16.80;9.93;;;;;;;;;;5106704;28;20067;-80
2023/01/19 04:39:54;;;;;;;18.27;10.20;;;;;;;;;;5107623;28;20470;-80
2023/01/19 04:42:21;;;;;;;21.15;10.60;;;;;;;;;;5110069;28;20031;-79
2023/01/19 04:44:47;;;;;;;18.25;10.68;;;;;;;;;;5107196;28;20390;-80
2023/01/19 04:47:14;;;;;;;21.15;11.05;;;;;;;;;;5105876;28;20436;-80
2023/01/19 04:49:40;;;;;;;21.38;11.85;;;;;;;;;;5091677;28;20052;-80
2023/01/19 04:52:06;;;;;;;19.50;11.05;;;;;;;;;;5105459;28;20023;-80
2023/01/19 04:54:32;;;;;;;18.70;11.52;;;;;;;;;;5093712;28;20032;-80
2023/01/19 04:56:58;;;;;;;17.52;9.73;;;;;;;;;;5103746;28;20058;-80
2023/01/19 04:59:24;;;;;;;15.88;7.13;;;;;;;;;;5105200;28;20063;-80
2023/01/19 05:01:50;;;;;;;14.13;7.22;;;;;;;;;;5086860;28;20038;-80
2023/01/19 05:04:16;;;;;;;12.25;5.30;;;;;;;;;;5101054;28;20115;-80
2023/01/19 05:06:42;;;;;;;11.02;5.00;;;;;;;;;;5109317;28;20024;-80
2023/01/19 05:09:11;;;;;;;10.52;5.50;;;;;;;;;;5110053;28;20019;-80
2023/01/19 05:11:38;;;;;;;12.73;6.05;;;;;;;;;;5106895;28;20106;-80
2023/01/19 05:14:04;;;;;;;9.45;5.55;;;;;;;;;;5099033;28;20059;-80
2023/01/19 05:16:30;;;;;;;8.98;4.88;;;;;;;;;;5106317;28;20074;-80
2023/01/19 05:18:56;;;;;;;11.35;5.03;;;;;;;;;;5105232;28;20055;-80
2023/01/19 05:21:22;;;;;;;11.05;4.13;;;;;;;;;;5105137;28;20031;-80
2023/01/19 05:23:48;;;;;;;9.60;4.43;;;;;;;;;;5103410;28;20127;-80
2023/01/19 05:26:13;;;;;;;9.75;4.60;;;;;;;;;;5110002;28;20102;-80
2023/01/19 05:28:39;;;;;;;10.93;5.63;;;;;;;;;;5108713;28;20381;-80
2023/01/19 05:31:06;;;;;;;10.63;5.07;;;;;;;;;;5101474;28;20081;-80
2023/01/19 05:33:31;;;;;;;11.18;6.47;;;;;;;;;;5108204;28;20032;-80
2023/01/19 05:35:58;;;;;;;14.43;8.75;;;;;;;;;;5096015;28;20633;-80
2023/01/19 05:38:24;;;;;;;16.77;8.45;;;;;;;;;;5099442;28;20031;-81
2023/01/19 05:40:55;;;;;;;26.88;12.15;;;;;;;;;;5102301;28;20043;-80
2023/01/19 05:43:21;;;;;;;20.70;10.40;;;;;;;;;;5109034;28;20050;-80
2023/01/19 05:45:47;;;;;;;16.98;8.88;;;;;;;;;;5117874;28;20034;-80
2023/01/19 05:48:13;;;;;;;22.50;11.00;;;;;;;;;;5109859;28;20796;-80
2023/01/19 05:50:39;;;;;;;16.17;9.18;;;;;;;;;;5109022;28;20047;-80
2023/01/19 05:53:05;;;;;;;17.88;8.25;;;;;;;;;;5106610;28;20043;-80
2023/01/19 05:55:31;;;;;;;34.08;17.10;;;;;;;;;;5101274;28;20040;-81
2023/01/19 05:57:57;;;;;;;23.35;12.70;;;;;;;;;;5103192;28;20063;-80
2023/01/19 06:00:24;;;;;;;33.97;15.20;;;;;;;;;;5106827;28;20423;-80
2023/01/19 06:02:50;;;;;;;18.77;9.68;;;;;;;;;;5102461;28;20493;-81
2023/01/19 06:05:16;;;;;;;14.85;7.78;;;;;;;;;;5088373;28;20151;-79
2023/01/19 06:07:42;;;;;;;13.88;7.80;;;;;;;;;;5099977;28;20028;-81
2023/01/19 06:10:09;;;;;;;18.88;7.40;;;;;;;;;;5105248;28;20490;-80
2023/01/19 06:12:34;;;;;;;29.23;16.27;;;;;;;;;;5105525;28;20671;-80
2023/01/19 06:15:00;;;;;;;24.98;14.23;;;;;;;;;;5093186;28;20039;-80
2023/01/19 06:17:26;;;;;;;25.05;14.32;;;;;;;;;;5105250;28;20035;-80
2023/01/19 06:19:52;;;;;;;34.17;16.65;;;;;;;;;;5105562;28;20106;-80
2023/01/19 06:22:18;;;;;;;31.90;14.02;;;;;;;;;;5105560;28;20095;-80
2023/01/19 06:24:44;;;;;;;24.52;11.82;;;;;;;;;;5106326;28;20032;-80
2023/01/19 06:27:12;;;;;;;22.67;10.68;;;;;;;;;;5088837;28;20032;-81
2023/01/19 06:29:38;;;;;;;24.08;12.10;;;;;;;;;;5084418;28;20031;-80
2023/01/19 06:32:04;;;;;;;23.33;12.23;;;;;;;;;;5105139;28;20461;-81
2023/01/19 06:34:30;;;;;;;86.80;43.30;;;;;;;;;;5107881;28;20032;-84
2023/01/19 06:36:57;;;;;;;40.17;20.77;;;;;;;;;;5107292;28;20401;-82
2023/01/19 06:39:23;;;;;;;25.13;13.13;;;;;;;;;;5106319;28;20936;-84
2023/01/19 06:41:49;;;;;;;23.15;11.82;;;;;;;;;;5089038;28;20391;-84
2023/01/19 06:44:15;;;;;;;22.75;11.00;;;;;;;;;;5093268;28;20089;-83
2023/01/19 06:46:41;;;;;;;16.83;8.98;;;;;;;;;;5092546;28;20692;-83
2023/01/19 06:49:07;;;;;;;16.52;7.00;;;;;;;;;;5111233;27;20012;-82
2023/01/19 06:51:33;;;;;;;10.25;3.90;;;;;;;;;;5092884;28;20383;-83
2023/01/19 06:53:59;;;;;;;12.48;5.55;;;;;;;;;;5109784;28;20066;-83
2023/01/19 06:56:25;;;;;;;14.88;6.80;;;;;;;;;;5097380;28;20036;-83
2023/01/19 06:58:54;;;;;;;29.25;14.18;;;;;;;;;;5093498;28;20038;-82
2023/01/19 07:01:21;;;;;;;34.00;17.00;;;;;;;;;;5092516;28;20474;-83
2023/01/19 07:03:47;;;;;;;24.17;12.77;;;;;;;;;;5105911;28;20497;-83
2023/01/19 07:06:13;;;;;;;18.83;9.95;;;;;;;;;;5109911;28;20553;-82
2023/01/19 07:08:39;;;;;;;26.17;14.10;;;;;;;;;;5088195;28;20118;-83
2023/01/19 07:11:09;;;;;;;25.45;12.70;;;;;;;;;;5088204;28;20043;-83
2023/01/19 07:13:36;;;;;;;27.15;14.93;;;;;;;;;;5090102;28;20039;-83
2023/01/19 07:16:06;;;;;;;28.35;13.43;;;;;;;;;;5104515;28;20046;-83
2023/01/19 07:18:32;;;;;;;25.65;13.40;;;;;;;;;;5109341;28;20035;-83
2023/01/19 07:20:58;;;;;;;24.08;12.55;;;;;;;;;;5085045;28;20402;-83
2023/01/19 07:23:24;;;;;;;23.50;12.00;;;;;;;;;;5104410;28;20157;-83
2023/01/19 07:25:50;;;;;;;23.17;13.50;;;;;;;;;;5106926;28;20467;-83
2023/01/19 07:28:16;;;;;;;25.05;12.82;;;;;;;;;;5089031;28;20032;-83
2023/01/19 07:30:44;;;;;;;30.40;15.30;;;;;;;;;;5105043;28;20043;-83
2023/01/19 07:33:10;;;;;;;24.17;12.93;;;;;;;;;;5093205;28;20661;-83
2023/01/19 07:35:36;;;;;;;27.38;15.00;;;;;;;;;;5093262;28;20145;-83
2023/01/19 07:38:03;;;;;;;50.63;25.85;;;;;;;;;;5092246;28;20134;-84
2023/01/19 07:40:29;;;;;;;56.13;30.25;;;;;;;;;;5091467;28;20131;-83
2023/01/19 07:42:55;;;;;;;61.50;33.22;;;;;;;;;;5089876;28;20051;-83
2023/01/19 07:45:21;;;;;;;47.20;24.95;;;;;;;;;;5108369;28;20715;-83
2023/01/19 07:47:48;;;;;;;33.70;17.75;;;;;;;;;;5084578;28;20031;-83
2023/01/19 07:50:15;;;;;;;22.33;11.02;;;;;;;;;;5088658;28;20135;-83
2023/01/19 07:52:41;;;;;;;31.42;16.90;;;;;;;;;;5105552;28;20035;-83
2023/01/19 07:55:08;;;;;;;36.20;19.38;;;;;;;;;;5091951;28;20080;-83
2023/01/19 07:57:35;;;;;;;31.95;16.05;;;;;;;;;;5110747;28;20035;-83
2023/01/19 08:00:02;;;;;;;14.07;6.82;;;;;;;;;;5092083;28;20044;-83
2023/01/19 08:02:29;;;;;;;13.25;4.80;;;;;;;;;;5108865;28;20023;-84
2023/01/19 08:04:55;;;;;;;14.00;4.78;;;;;;;;;;5088451;28;20131;-83
2023/01/19 08:07:21;;;;;;;13.63;6.85;;;;;;;;;;5085036;28;20068;-83
2023/01/19 08:09:47;;;;;;;24.65;14.80;;;;;;;;;;5104420;28;20059;-84
2023/01/19 08:12:13;;;;;;;23.45;14.65;;;;;;;;;;5085883;28;20107;-83
2023/01/19 08:14:39;;;;;;;29.25;15.25;;;;;;;;;;5111061;28;20042;-83
2023/01/19 08:17:05;;;;;;;26.48;14.45;;;;;;;;;;5111181;28;20028;-83
2023/01/19 08:19:31;;;;;;;18.83;11.20;;;;;;;;;;5092091;28;20055;-83
2023/01/19 08:21:57;;;;;;;22.63;12.90;;;;;;;;;;5084136;28;20024;-84
2023/01/19 08:24:27;;;;;;;21.98;11.77;;;;;;;;;;5083333;28;20044;-83
2023/01/19 08:26:59;;;;;;;25.92;12.43;;;;;;;;;;5092252;28;20028;-84
2023/01/19 08:29:25;;;;;;;24.45;13.95;;;;;;;;;;5087638;28;20040;-83
2023/01/19 08:31:54;;;;;;;26.17;14.07;;;;;;;;;;5087430;28;20036;-83
2023/01/19 08:34:20;;;;;;;28.48;16.67;;;;;;;;;;5104281;28;20168;-83
2023/01/19 08:36:46;;;;;;;27.52;14.77;;;;;;;;;;5105363;28;20027;-84
2023/01/19 08:39:12;;;;;;;26.38;14.93;;;;;;;;;;5091686;28;20039;-84
2023/01/19 08:41:38;;;;;;;31.38;17.40;;;;;;;;;;5090661;28;20049;-83
2023/01/19 08:44:04;;;;;;;34.03;16.33;;;;;;;;;;5108473;28;20474;-84
2023/01/19 08:46:30;;;;;;;29.83;17.52;;;;;;;;;;5103842;28;20027;-83
2023/01/19 08:48:56;;;;;;;38.92;22.92;;;;;;;;;;5092116;28;20038;-83
2023/01/19 08:51:22;;;;;;;34.50;22.92;;;;;;;;;;5098284;28;20048;-83
2023/01/19 08:53:49;;;;;;;40.97;21.17;;;;;;;;;;5091876;28;20028;-83
2023/01/19 08:56:15;;;;;;;41.13;23.13;;;;;;;;;;5107361;28;20523;-83
2023/01/19 08:58:41;;;;;;;38.25;23.70;;;;;;;;;;5089961;28;20039;-83
2023/01/19 09:01:08;;;;;;;31.33;17.88;;;;;;;;;;5086308;28;20034;-83
2023/01/19 09:03:34;;;;;;;29.90;18.17;;;;;;;;;;5089684;28;20067;-83
2023/01/19 09:06:01;;;;;;;27.65;16.95;;;;;;;;;;5078982;28;20039;-83
2023/01/19 09:08:27;;;;;;;35.05;18.48;;;;;;;;;;5091233;28;20820;-83
2023/01/19 09:10:53;;;;;;;27.83;16.10;;;;;;;;;;5089832;28;20058;-83
2023/01/19 09:13:20;;;;;;;29.60;15.88;;;;;;;;;;5100340;28;20049;-83
2023/01/19 09:15:46;;;;;;;38.20;21.02;;;;;;;;;;5091347;28;20032;-83
2023/01/19 09:18:13;;;;;;;32.75;20.65;;;;;;;;;;5084708;28;20032;-84
2023/01/19 09:20:43;;;;;;;42.97;22.02;;;;;;;;;;5079440;28;20031;-83
2023/01/19 09:23:10;;;;;;;39.78;22.25;;;;;;;;;;5080426;28;20043;-83
2023/01/19 09:25:37;;;;;;;104.60;26.58;;;;;;;;;;5102795;28;20127;-82
2023/01/19 09:28:04;;;;;;;30.75;18.13;;;;;;;;;;5091394;28;20015;-82
2023/01/19 09:30:31;;;;;;;19.55;12.90;;;;;;;;;;5103633;28;20036;-83
2023/01/19 09:33:01;;;;;;;22.95;12.90;;;;;;;;;;5108695;28;20458;-83
2023/01/19 09:35:27;;;;;;;24.08;8.90;;;;;;;;;;5100094;28;20036;-83
2023/01/19 09:37:53;;;;;;;12.75;6.82;;;;;;;;;;5105450;28;20076;-82
2023/01/19 09:40:20;;;;;;;15.05;7.05;;;;;;;;;;5108659;28;20378;-82
2023/01/19 09:42:52;;;;;;;11.05;6.30;;;;;;;;;;5102013;28;20468;-82
2023/01/19 09:45:21;;;;;;;22.13;11.52;;;;;;;;;;5102683;28;20035;-82
2023/01/19 09:47:47;;;;;;;28.25;10.55;;;;;;;;;;5089918;28;20118;-83
2023/01/19 09:50:20;;;;;;;28.27;14.05;;;;;;;;;;5102089;28;20051;-82
2023/01/19 09:52:49;;;;;;;67.13;28.88;;;;;;;;;;5103869;28;20055;-82
2023/01/19 09:55:20;;;;;;;25.48;13.82;;;;;;;;;;5109388;28;20072;-83
2023/01/19 09:57:46;;;;;;;40.92;21.85;;;;;;;;;;5098973;28;20844;-83
2023/01/19 10:00:23;;;;;;;32.45;17.02;;;;;;;;;;5105724;28;20027;-83
2023/01/19 10:03:04;;;;;;;29.05;13.40;;;;;;;;;;5097029;28;20053;-82
2023/01/19 10:05:33;;;;;;;16.40;9.23;;;;;;;;;;5086953;28;20127;-81
2023/01/19 10:08:07;;;;;;;17.95;10.07;;;;;;;;;;5107491;28;20035;-82
2023/01/19 10:10:34;;;;;;;17.17;8.23;;;;;;;;;;5109477;28;20058;-80
2023/01/19 10:13:00;;;;;;;15.60;8.23;;;;;;;;;;5104791;28;20027;-80
2023/01/19 10:15:45;;;;;;;17.98;8.25;;;;;;;;;;5105676;28;20132;-81
2023/01/19 10:18:12;;;;;;;14.48;9.07;;;;;;;;;;5105104;28;20027;-80
2023/01/19 10:20:42;;;;;;;18.40;9.35;;;;;;;;;;5111887;28;20063;-81
2023/01/19 10:23:35;;;;;;;17.02;9.18;;;;;;;;;;5109537;28;20034;-81
2023/01/19 10:26:03;;;;;;;23.75;10.10;;;;;;;;;;5104781;28;20055;-80
2023/01/19 10:28:30;;;;;;;16.40;9.93;;;;;;;;;;5104744;28;20060;-81
2023/01/19 10:30:56;;;;;;;18.15;9.40;;;;;;;;;;5100444;28;20031;-81
2023/01/19 10:33:22;;;;;;;34.25;19.95;;;;;;;;;;5110294;28;20028;-81
2023/01/19 10:35:49;;;;;;;38.08;18.25;;;;;;;;;;5112071;28;20035;-81
2023/01/19 10:38:20;;;;;;;33.63;14.90;;;;;;;;;;5102983;28;20031;-80
2023/01/19 10:40:50;;;;;;;58.80;24.23;;;;;;;;;;5108108;28;20036;-81
2023/01/19 10:43:34;;;;;;;43.00;17.92;;;;;;;;;;5102521;28;20032;-80
2023/01/19 10:46:04;;;;;;;42.95;18.90;;;;;;;;;;5103965;28;20501;-80
2023/01/19 10:48:36;;;;;;;48.58;16.95;;;;;;;;;;5110881;28;20020;-81
2023/01/19 10:51:03;;;;;;;24.95;11.10;;;;;;;;;;5108265;28;20052;-81
2023/01/19 10:53:29;;;;;;;17.77;8.63;;;;;;;;;;5095990;28;20032;-81
2023/01/19 10:56:28;;;;;;;15.15;8.05;;;;;;;;;;5091108;28;20051;-80
2023/01/19 10:58:54;;;;;;;12.88;7.28;;;;;;;;;;5078005;28;20122;-80
2023/01/19 11:01:24;;;;;;;13.45;7.55;;;;;;;;;;5109437;28;20107;-80
2023/01/19 11:03:52;;;;;;;14.98;8.13;;;;;;;;;;5107100;28;20059;-80
2023/01/19 11:06:19;;;;;;;12.68;8.07;;;;;;;;;;5092566;28;20041;-81
2023/01/19 11:08:46;;;;;;;12.52;5.03;;;;;;;;;;5099012;28;20099;-80
2023/01/19 11:11:12;;;;;;;11.35;5.85;;;;;;;;;;5107952;28;20662;-81
2023/01/19 11:13:39;;;;;;;10.77;5.78;;;;;;;;;;5106247;28;20020;-81
2023/01/19 11:16:07;;;;;;;10.32;5.43;;;;;;;;;;5107384;28;20481;-81
2023/01/19 11:18:38;;;;;;;9.10;4.95;;;;;;;;;;5097643;28;20459;-81
2023/01/19 11:21:12;;;;;;;11.68;4.43;;;;;;;;;;5106900;28;20057;-82
2023/01/19 11:23:43;;;;;;;11.35;6.32;;;;;;;;;;5111334;28;20565;-82
2023/01/19 11:26:17;;;;;;;22.95;13.23;;;;;;;;;;5101617;28;20443;-81
2023/01/19 11:28:48;;;;;;;21.38;12.23;;;;;;;;;;5106972;28;20098;-81
2023/01/19 11:31:14;;;;;;;21.00;12.23;;;;;;;;;;5101846;28;20073;-81
2023/01/19 11:33:48;;;;;;;16.85;9.07;;;;;;;;;;5108785;28;20024;-81
2023/01/19 11:36:16;;;;;;;13.93;6.82;;;;;;;;;;5106925;28;20042;-81
2023/01/19 11:38:43;;;;;;;14.93;7.95;;;;;;;;;;5107756;28;20028;-81
2023/01/19 11:41:16;;;;;;;13.88;8.40;;;;;;;;;;5110756;28;20032;-81
2023/01/19 11:43:42;;;;;;;12.25;7.07;;;;;;;;;;5111163;28;20829;-81
2023/01/19 11:46:11;;;;;;;12.45;6.07;;;;;;;;;;5105781;28;20046;-81
2023/01/19 11:48:39;;;;;;;20.58;11.98;;;;;;;;;;5108388;28;20378;-81
2023/01/19 11:51:09;;;;;;;16.45;9.77;;;;;;;;;;5107590;28;20056;-81
2023/01/19 11:53:35;;;;;;;12.05;6.18;;;;;;;;;;5101177;28;20031;-81
2023/01/19 11:56:11;;;;;;;9.65;5.32;;;;;;;;;;5106920;28;20040;-82
2023/01/19 11:58:38;;;;;;;9.77;5.13;;;;;;;;;;5102301;28;20059;-82
2023/01/19 12:01:19;;;;;;;7.15;3.90;;;;;;;;;;5099951;28;20027;-81
2023/01/19 12:04:05;;;;;;;7.75;3.60;;;;;;;;;;5102995;28;20377;-81
2023/01/19 12:07:01;;;;;;;8.18;4.43;;;;;;;;;;5107576;28;20081;-81
2023/01/19 12:09:29;;;;;;;8.85;3.22;;;;;;;;;;5090294;28;20057;-81
2023/01/19 12:12:07;;;;;;;14.00;8.82;;;;;;;;;;5105603;28;20023;-81
2023/01/19 12:14:36;;;;;;;9.25;6.30;;;;;;;;;;5100849;28;20035;-81
2023/01/19 12:17:03;;;;;;;13.75;7.88;;;;;;;;;;5102057;28;20039;-81
2023/01/19 12:19:51;;;;;;;12.07;7.60;;;;;;;;;;5094246;28;20071;-81
2023/01/19 12:22:18;;;;;;;10.70;6.13;;;;;;;;;;5105358;28;20032;-81
2023/01/19 12:24:49;;;;;;;9.20;4.85;;;;;;;;;;5103341;28;20047;-81
2023/01/19 12:27:17;;;;;;;15.65;8.80;;;;;;;;;;5094796;28;20036;-81
2023/01/19 12:29:44;;;;;;;16.00;7.30;;;;;;;;;;5100068;28;20031;-81
2023/01/19 12:32:13;;;;;;;10.20;6.38;;;;;;;;;;5101547;28;20818;-82
2023/01/19 12:34:40;;;;;;;13.75;6.75;;;;;;;;;;5106293;28;20039;-82
2023/01/19 12:37:07;;;;;;;15.43;7.18;;;;;;;;;;5108081;28;20038;-82
2023/01/19 12:39:34;;;;;;;16.83;8.07;;;;;;;;;;5107617;28;20032;-82
2023/01/19 12:42:05;;;;;;;15.90;7.57;;;;;;;;;;5097297;28;20035;-82
2023/01/19 12:44:32;;;;;;;13.35;7.07;;;;;;;;;;5098208;28;20111;-82
2023/01/19 12:47:05;;;;;;;14.73;7.65;;;;;;;;;;5107144;28;20019;-82
2023/01/19 12:49:39;;;;;;;15.13;7.80;;;;;;;;;;5102695;28;20020;-81
2023/01/19 12:52:18;;;;;;;13.23;6.07;;;;;;;;;;5102434;28;20047;-82
2023/01/19 12:54:51;;;;;;;11.77;5.60;;;;;;;;;;5104608;28;20463;-82
2023/01/19 12:57:23;;;;;;;13.80;6.05;;;;;;;;;;5102099;28;20035;-82
2023/01/19 12:59:55;;;;;;;13.32;5.88;;;;;;;;;;5095030;28;20123;-82
2023/01/19 13:02:25;;;;;;;11.23;4.78;;;;;;;;;;5098541;28;20032;-82
2023/01/19 13:05:06;;;;;;;15.95;7.20;;;;;;;;;;5095885;28;20035;-82
2023/01/19 13:07:51;;;;;;;15.55;7.30;;;;;;;;;;5108340;28;20028;-82
2023/01/19 13:10:36;;;;;;;15.98;6.15;;;;;;;;;;5098300;28;20148;-80
2023/01/19 13:13:16;;;;;;;14.75;6.38;;;;;;;;;;5100085;28;20153;-82
2023/01/19 13:15:43;;;;;;;12.48;6.00;;;;;;;;;;5101676;28;20036;-82
2023/01/19 13:18:10;;;;;;;15.30;7.88;;;;;;;;;;5100582;28;20023;-82
2023/01/19 13:20:44;;;;;;;18.25;8.05;;;;;;;;;;5110333;28;20176;-82
2023/01/19 13:23:18;;;;;;;14.00;7.75;;;;;;;;;;5100513;28;20024;-82
2023/01/19 13:25:50;;;;;;;13.52;8.15;;;;;;;;;;5084880;28;20031;-82
2023/01/19 13:28:17;;;;;;;15.38;7.70;;;;;;;;;;5081974;28;20027;-81
2023/01/19 13:30:52;;;;;;;22.33;10.45;;;;;;;;;;5102102;28;20031;-82
2023/01/19 13:33:20;;;;;;;24.35;13.07;;;;;;;;;;5105268;28;20032;-82
2023/01/19 13:35:54;;;;;;;23.85;11.90;;;;;;;;;;5101765;28;20036;-82
2023/01/19 13:38:21;;;;;;;19.00;9.40;;;;;;;;;;5104706;28;20054;-82
2023/01/19 13:40:47;;;;;;;19.02;9.48;;;;;;;;;;5097417;28;20035;-82
2023/01/19 13:43:23;;;;;;;18.48;9.52;;;;;;;;;;5105525;28;20027;-82
2023/01/19 13:45:50;;;;;;;17.65;8.48;;;;;;;;;;5084689;28;20075;-82
2023/01/19 13:48:18;;;;;;;17.77;7.68;;;;;;;;;;5090414;28;20024;-82
2023/01/19 13:50:55;;;;;;;16.65;9.25;;;;;;;;;;5103188;28;20503;-82
2023/01/19 13:53:23;;;;;;;13.82;7.70;;;;;;;;;;5104620;28;20110;-82
2023/01/19 13:56:05;;;;;;;14.35;8.85;;;;;;;;;;5090119;28;20077;-82
2023/01/19 13:58:31;;;;;;;18.52;10.88;;;;;;;;;;5088192;28;20035;-82
2023/01/19 14:00:57;;;;;;;21.73;11.63;;;;;;;;;;5090714;28;20036;-82
2023/01/19 14:03:24;;;;;;;17.25;10.68;;;;;;;;;;5103236;28;20027;-81
2023/01/19 14:05:51;;;;;;;18.77;10.68;;;;;;;;;;5101821;28;20036;-82
2023/01/19 14:08:18;;;;;;;22.02;12.50;;;;;;;;;;5102685;28;20038;-82
2023/01/19 14:10:46;;;;;;;22.15;12.20;;;;;;;;;;5088739;28;20491;-82
2023/01/19 14:13:12;;;;;;;20.58;12.60;;;;;;;;;;5106745;28;20062;-82
2023/01/19 14:15:41;;;;;;;24.55;13.40;;;;;;;;;;5104591;28;20063;-83
2023/01/19 14:18:08;;;;;;;21.17;11.98;;;;;;;;;;5088407;28;20066;-82
2023/01/19 14:20:38;;;;;;;17.33;10.18;;;;;;;;;;5108915;28;20036;-82
2023/01/19 14:23:05;;;;;;;21.52;11.15;;;;;;;;;;5088764;28;20398;-82
2023/01/19 14:25:32;;;;;;;18.70;10.23;;;;;;;;;;5078581;28;20487;-82
2023/01/19 14:28:17;;;;;;;19.20;11.23;;;;;;;;;;5099744;28;20056;-82
2023/01/19 14:30:53;;;;;;;18.85;9.75;;;;;;;;;;5100638;28;20034;-82
2023/01/19 14:33:34;;;;;;;14.80;8.93;;;;;;;;;;5098739;28;20077;-82
2023/01/19 14:36:10;;;;;;;14.75;8.32;;;;;;;;;;5106057;28;20140;-82
2023/01/19 14:38:38;;;;;;;18.40;9.52;;;;;;;;;;5087717;28;20031;-83
2023/01/19 14:41:04;;;;;;;21.67;11.45;;;;;;;;;;5080583;28;20032;-82